Time;durP1;ratioP1;P1;durP2;ratioP2;P2;SDS_P1;SDS_P2;PMS_P1;PMS_P2;Temp;Humidity;BMP_temperature;BMP_pressure;BME280_temperature;BME280_humidity;BME280_pressure;Samples;Min_cycle;Max_cycle;Signal;HPM_P1;HPM_P2
2021/01/18 00:00:35;;;;;;;8.88;3.55;;;16.20;56.40;;;;;;5030646;28;20025;-72
2021/01/18 00:03:04;;;;;;;7.85;4.22;;;16.20;56.40;;;;;;5031562;28;20017;-73
2021/01/18 00:05:30;;;;;;;9.38;3.78;;;16.10;56.30;;;;;;5053778;28;20404;-73
2021/01/18 00:07:57;;;;;;;9.25;4.30;;;16.10;56.30;;;;;;5031210;28;20044;-73
2021/01/18 00:10:24;;;;;;;8.57;3.47;;;16.10;56.30;;;;;;5013539;28;20034;-73
2021/01/18 00:12:55;;;;;;;6.55;3.20;;;16.00;56.30;;;;;;5013029;28;20029;-73
2021/01/18 00:15:23;;;;;;;8.57;3.83;;;16.10;56.30;;;;;;5013373;28;20030;-73
2021/01/18 00:17:49;;;;;;;7.65;3.95;;;16.00;56.30;;;;;;5013154;28;20032;-73
2021/01/18 00:20:16;;;;;;;10.20;3.90;;;16.00;56.30;;;;;;5013039;28;20032;-73
2021/01/18 00:22:43;;;;;;;5.57;3.30;;;16.00;56.30;;;;;;5013232;28;20030;-72
2021/01/18 00:25:15;;;;;;;10.00;3.78;;;15.90;56.30;;;;;;5015769;28;20033;-72
2021/01/18 00:27:41;;;;;;;9.07;3.83;;;15.90;56.30;;;;;;5013544;28;20049;-72
2021/01/18 00:30:20;;;;;;;6.93;3.58;;;15.90;56.40;;;;;;5012034;28;20485;-72
2021/01/18 00:32:47;;;;;;;7.63;3.53;;;15.80;56.30;;;;;;5013331;28;20494;-73
2021/01/18 00:35:15;;;;;;;7.55;2.72;;;15.80;56.30;;;;;;5013102;28;20026;-73
2021/01/18 00:37:42;;;;;;;6.47;3.17;;;15.80;56.30;;;;;;5012771;28;20026;-73
2021/01/18 00:40:10;;;;;;;7.13;3.38;;;15.80;56.30;;;;;;5013521;28;20033;-73
2021/01/18 00:42:35;;;;;;;6.85;3.40;;;15.80;56.30;;;;;;5013409;28;20037;-73
2021/01/18 00:45:01;;;;;;;9.07;2.78;;;15.80;56.30;;;;;;5013334;28;20026;-73
2021/01/18 00:47:27;;;;;;;10.07;3.80;;;15.70;56.30;;;;;;5013085;28;20034;-73
2021/01/18 00:49:52;;;;;;;6.93;3.55;;;15.70;56.20;;;;;;5012732;28;20438;-73
2021/01/18 00:52:18;;;;;;;7.22;3.85;;;15.70;56.20;;;;;;5012857;28;20037;-73
2021/01/18 00:54:43;;;;;;;4.93;2.70;;;15.60;56.20;;;;;;5012721;28;20029;-73
2021/01/18 00:57:09;;;;;;;8.88;3.50;;;15.70;56.30;;;;;;5012916;28;20040;-73
2021/01/18 00:59:34;;;;;;;8.32;3.33;;;15.60;56.20;;;;;;5012872;28;20482;-73
2021/01/18 01:02:00;;;;;;;7.75;3.58;;;15.60;56.20;;;;;;5026818;28;20033;-73
2021/01/18 01:04:26;;;;;;;7.60;3.17;;;15.60;56.20;;;;;;5030087;28;20486;-73
2021/01/18 01:06:51;;;;;;;8.15;3.58;;;15.60;56.20;;;;;;5012215;28;20042;-73
2021/01/18 01:09:17;;;;;;;6.47;3.30;;;15.50;56.20;;;;;;5012699;28;20045;-73
2021/01/18 01:11:44;;;;;;;8.68;4.05;;;15.50;56.20;;;;;;5012196;28;20133;-73
2021/01/18 01:14:10;;;;;;;8.07;3.30;;;15.50;56.20;;;;;;5012541;28;20029;-73
2021/01/18 01:16:36;;;;;;;8.88;3.40;;;15.50;56.70;;;;;;5012319;28;20061;-73
2021/01/18 01:19:02;;;;;;;8.48;3.40;;;15.50;56.20;;;;;;5012346;28;20061;-73
2021/01/18 01:21:27;;;;;;;9.85;3.80;;;15.50;56.20;;;;;;5012448;28;20041;-73
2021/01/18 01:23:53;;;;;;;7.75;3.42;;;15.40;56.20;;;;;;5012206;28;20022;-73
2021/01/18 01:26:18;;;;;;;8.35;3.67;;;15.40;56.70;;;;;;5012310;28;20037;-72
2021/01/18 01:28:45;;;;;;;6.57;2.95;;;15.40;56.20;;;;;;5010822;28;20100;-73
2021/01/18 01:31:11;;;;;;;5.85;3.33;;;15.40;56.10;;;;;;5011219;28;20391;-72
2021/01/18 01:33:36;;;;;;;6.30;2.85;;;15.40;56.10;;;;;;5022428;28;20029;-73
2021/01/18 01:36:03;;;;;;;6.10;3.38;;;15.30;56.10;;;;;;5025406;28;20066;-73
2021/01/18 01:38:29;;;;;;;7.03;3.53;;;15.30;56.10;;;;;;5012533;28;20041;-72
2021/01/18 01:40:54;;;;;;;7.65;3.38;;;15.30;56.10;;;;;;5016613;28;20026;-73
2021/01/18 01:43:20;;;;;;;6.50;3.05;;;15.30;56.10;;;;;;5026828;28;20225;-73
2021/01/18 01:45:46;;;;;;;6.63;2.97;;;15.30;56.00;;;;;;5016476;28;20057;-72
2021/01/18 01:48:11;;;;;;;8.23;3.15;;;15.20;56.00;;;;;;5013966;28;20490;-73
2021/01/18 01:50:38;;;;;;;6.57;3.10;;;15.20;56.00;;;;;;5022175;28;20048;-73
2021/01/18 01:53:39;;;;;;;7.88;3.53;;;15.20;56.00;;;;;;5031413;28;20037;-72
2021/01/18 01:56:05;;;;;;;6.38;2.85;;;15.20;56.00;;;;;;5026647;28;20044;-73
2021/01/18 01:58:30;;;;;;;5.93;2.72;;;15.20;56.00;;;;;;5020374;28;20026;-73
2021/01/18 02:00:57;;;;;;;7.90;3.25;;;15.20;56.00;;;;;;5009871;28;20391;-72
2021/01/18 02:03:38;;;;;;;7.85;3.00;;;15.20;56.00;;;;;;5010228;28;20057;-73
2021/01/18 02:06:04;;;;;;;7.15;3.28;;;15.10;56.00;;;;;;5030022;28;20025;-73
2021/01/18 02:08:30;;;;;;;6.15;2.80;;;15.10;56.00;;;;;;5012739;28;20026;-73
2021/01/18 02:10:55;;;;;;;7.25;3.33;;;15.10;56.00;;;;;;5011101;28;20029;-73
2021/01/18 02:13:51;;;;;;;7.18;2.42;;;15.10;56.00;;;;;;5026143;28;20481;-73
2021/01/18 02:16:46;;;;;;;7.05;3.20;;;15.00;56.00;;;;;;5018305;28;20410;-72
2021/01/18 02:19:58;;;;;;;9.63;3.47;;;15.00;55.90;;;;;;5011311;28;20397;-72
2021/01/18 02:22:29;;;;;;;6.35;2.95;;;15.00;55.90;;;;;;5011231;28;20054;-73
2021/01/18 02:25:28;;;;;;;6.32;3.17;;;15.00;56.00;;;;;;5011620;28;20104;-72
2021/01/18 02:28:31;;;;;;;9.73;2.90;;;15.00;55.90;;;;;;5011412;28;20028;-72
2021/01/18 02:31:41;;;;;;;5.25;2.78;;;14.90;55.90;;;;;;5011270;28;20056;-73
2021/01/18 02:34:28;;;;;;;7.20;3.22;;;14.90;55.90;;;;;;5015983;28;20524;-73
2021/01/18 02:37:02;;;;;;;7.43;3.22;;;14.90;56.00;;;;;;5010814;28;20390;-72
2021/01/18 02:39:50;;;;;;;6.57;2.97;;;14.90;55.90;;;;;;5011917;28;20035;-73
2021/01/18 02:42:22;;;;;;;8.73;2.72;;;14.90;55.90;;;;;;5011166;28;20057;-72
2021/01/18 02:44:50;;;;;;;7.70;3.00;;;14.90;55.90;;;;;;5010810;28;20030;-72
2021/01/18 02:47:19;;;;;;;7.90;3.13;;;14.80;55.80;;;;;;5021494;28;20018;-72
2021/01/18 02:49:50;;;;;;;7.55;3.05;;;14.90;55.90;;;;;;5010906;28;20022;-72
2021/01/18 02:52:16;;;;;;;5.55;2.95;;;14.80;55.90;;;;;;5010458;28;20034;-72
2021/01/18 02:54:41;;;;;;;6.15;2.88;;;14.80;55.90;;;;;;5010929;28;20040;-72
2021/01/18 02:57:14;;;;;;;5.70;2.53;;;14.80;55.90;;;;;;5010833;28;20117;-72
2021/01/18 02:59:42;;;;;;;9.05;3.42;;;14.80;55.80;;;;;;5022731;28;20018;-72
2021/01/18 03:02:13;;;;;;;6.93;3.30;;;14.80;55.90;;;;;;5010630;28;20497;-73
2021/01/18 03:05:00;;;;;;;6.00;3.05;;;14.80;55.90;;;;;;5009396;28;20029;-73
2021/01/18 03:07:39;;;;;;;6.20;2.75;;;14.80;55.90;;;;;;5011105;28;20026;-73
2021/01/18 03:10:22;;;;;;;7.10;2.35;;;14.70;55.80;;;;;;5010875;28;20030;-73
2021/01/18 03:12:59;;;;;;;9.50;3.03;;;14.70;55.90;;;;;;5028682;28;20192;-73
2021/01/18 03:15:30;;;;;;;7.95;3.13;;;14.70;55.90;;;;;;5027651;28;20022;-72
2021/01/18 03:18:00;;;;;;;7.38;3.08;;;14.70;55.90;;;;;;5027930;28;20025;-73
2021/01/18 03:20:26;;;;;;;6.97;3.22;;;14.70;55.90;;;;;;5029443;28;20026;-72
2021/01/18 03:22:52;;;;;;;5.53;3.05;;;14.70;55.90;;;;;;5010794;28;20935;-73
2021/01/18 03:25:18;;;;;;;8.40;2.78;;;14.60;55.80;;;;;;5010612;28;20026;-72
2021/01/18 03:27:57;;;;;;;8.18;3.08;;;14.60;55.80;;;;;;5010362;28;20092;-72
2021/01/18 03:30:23;;;;;;;7.95;3.42;;;14.60;55.80;;;;;;5010820;28;20049;-73
2021/01/18 03:32:51;;;;;;;8.95;3.22;;;14.60;55.80;;;;;;5023024;28;20116;-72
2021/01/18 03:35:17;;;;;;;8.30;2.95;;;14.60;55.80;;;;;;5027269;28;20489;-72
2021/01/18 03:37:43;;;;;;;5.78;2.80;;;14.60;55.90;;;;;;5010087;28;20041;-72
2021/01/18 03:40:09;;;;;;;8.10;2.97;;;14.50;55.80;;;;;;5010820;28;20029;-72
2021/01/18 03:42:35;;;;;;;5.97;2.42;;;14.60;55.90;;;;;;5009995;28;20490;-72
2021/01/18 03:45:01;;;;;;;8.60;3.50;;;14.50;55.80;;;;;;5011177;28;20029;-72
2021/01/18 03:47:26;;;;;;;6.55;2.92;;;14.50;55.90;;;;;;5020971;28;20022;-73
2021/01/18 03:49:52;;;;;;;7.25;3.30;;;14.50;56.40;;;;;;5010916;28;20069;-73
2021/01/18 03:52:17;;;;;;;7.70;2.90;;;14.50;55.90;;;;;;5010140;28;20113;-73
2021/01/18 03:54:43;;;;;;;8.75;3.20;;;14.50;55.90;;;;;;5009268;28;20026;-73
2021/01/18 03:57:09;;;;;;;7.35;2.97;;;14.50;55.90;;;;;;5012714;28;20401;-73
2021/01/18 03:59:35;;;;;;;7.57;2.90;;;14.50;55.90;;;;;;5013429;28;20026;-72
2021/01/18 04:02:00;;;;;;;5.88;2.90;;;14.50;55.90;;;;;;5028184;28;20030;-72
2021/01/18 04:04:26;;;;;;;6.07;3.05;;;14.40;55.90;;;;;;5033000;28;20397;-72
2021/01/18 04:06:52;;;;;;;5.35;2.75;;;14.50;55.90;;;;;;5019554;28;20046;-72
2021/01/18 04:09:17;;;;;;;6.93;2.88;;;14.40;55.80;;;;;;5013868;28;20026;-72
2021/01/18 04:11:43;;;;;;;8.35;4.10;;;14.40;55.80;;;;;;5013506;28;20022;-73
2021/01/18 04:14:08;;;;;;;5.93;2.38;;;14.40;55.90;;;;;;5014758;28;20034;-72
2021/01/18 04:16:41;;;;;;;7.90;2.95;;;14.40;55.90;;;;;;5014064;28;20030;-72
2021/01/18 04:19:06;;;;;;;6.55;3.05;;;14.40;55.90;;;;;;5019134;28;20516;-73
2021/01/18 04:21:36;;;;;;;7.25;3.08;;;14.40;55.90;;;;;;5033351;28;20140;-72
2021/01/18 04:24:02;;;;;;;6.35;2.55;;;14.40;55.90;;;;;;5030980;28;20025;-72
2021/01/18 04:26:28;;;;;;;7.63;2.85;;;14.40;55.90;;;;;;5014704;28;20026;-73
2021/01/18 04:28:53;;;;;;;7.82;2.92;;;14.40;55.90;;;;;;5013234;28;20079;-73
2021/01/18 04:31:19;;;;;;;5.63;2.55;;;14.40;55.90;;;;;;5014260;28;20030;-73
2021/01/18 04:33:44;;;;;;;5.88;2.55;;;14.40;55.90;;;;;;5017173;28;20499;-73
2021/01/18 04:36:10;;;;;;;7.40;2.92;;;14.30;55.90;;;;;;5032475;28;20034;-73
2021/01/18 04:38:35;;;;;;;5.78;3.45;;;14.40;56.50;;;;;;5032650;28;20527;-73
2021/01/18 04:41:01;;;;;;;7.35;2.97;;;14.30;55.90;;;;;;5013735;28;20105;-73
2021/01/18 04:43:28;;;;;;;6.82;3.03;;;14.30;55.90;;;;;;5013129;28;20026;-72
2021/01/18 04:45:54;;;;;;;5.72;2.85;;;14.30;55.90;;;;;;5012702;28;20481;-73
2021/01/18 04:48:19;;;;;;;6.97;2.65;;;14.30;55.90;;;;;;5026102;28;20057;-73
2021/01/18 04:50:46;;;;;;;5.70;3.10;;;14.30;55.90;;;;;;5032710;28;20037;-73
2021/01/18 04:53:16;;;;;;;8.15;3.30;;;14.30;55.90;;;;;;5032646;28;20505;-73
2021/01/18 04:55:42;;;;;;;4.93;2.88;;;14.30;55.90;;;;;;5032311;28;20044;-72
2021/01/18 04:58:11;;;;;;;7.20;3.10;;;14.30;56.00;;;;;;5032277;28;20026;-73
2021/01/18 05:00:42;;;;;;;8.52;2.67;;;14.30;55.90;;;;;;5032028;28;20049;-72
2021/01/18 05:03:10;;;;;;;7.00;2.97;;;14.20;56.00;;;;;;5031468;28;20021;-73
2021/01/18 05:05:45;;;;;;;7.00;2.53;;;14.20;55.90;;;;;;5032418;28;20029;-72
2021/01/18 05:08:44;;;;;;;7.03;2.55;;;14.20;55.90;;;;;;5030846;28;20100;-73
2021/01/18 05:11:14;;;;;;;7.88;3.00;;;14.20;55.90;;;;;;5031076;28;20043;-72
2021/01/18 05:13:40;;;;;;;6.47;2.83;;;14.20;56.50;;;;;;5030894;28;20033;-73
2021/01/18 05:16:07;;;;;;;6.10;2.83;;;14.20;56.00;;;;;;5012451;28;20034;-73
2021/01/18 05:18:35;;;;;;;6.88;3.10;;;14.20;56.00;;;;;;5027075;28;20037;-72
2021/01/18 05:21:02;;;;;;;6.78;2.78;;;14.20;56.50;;;;;;5032714;28;20028;-73
2021/01/18 05:23:28;;;;;;;5.82;2.55;;;14.20;56.00;;;;;;5012059;28;20030;-73
2021/01/18 05:26:20;;;;;;;8.55;3.05;;;14.10;56.00;;;;;;5027368;28;20033;-73
2021/01/18 05:28:46;;;;;;;5.25;2.63;;;14.10;56.00;;;;;;5031269;28;20049;-73
2021/01/18 05:31:27;;;;;;;6.97;2.78;;;14.10;56.00;;;;;;5030787;28;20107;-73
2021/01/18 05:33:53;;;;;;;6.55;2.47;;;14.10;56.00;;;;;;5032001;28;20497;-73
2021/01/18 05:36:36;;;;;;;6.20;2.95;;;14.10;55.90;;;;;;5032067;28;20021;-73
2021/01/18 05:39:18;;;;;;;7.35;2.80;;;14.10;56.50;;;;;;5027911;28;20037;-74
2021/01/18 05:41:52;;;;;;;6.30;2.92;;;14.10;56.00;;;;;;5010395;28;20030;-73
2021/01/18 05:44:18;;;;;;;5.68;2.35;;;14.10;56.00;;;;;;5012096;28;20477;-73
2021/01/18 05:46:46;;;;;;;6.60;2.97;;;14.10;56.00;;;;;;5011800;28;20102;-72
2021/01/18 05:49:16;;;;;;;7.72;3.08;;;14.10;56.00;;;;;;5011098;28;20037;-73
2021/01/18 05:51:48;;;;;;;6.55;2.90;;;14.10;56.00;;;;;;5010277;28;20038;-73
2021/01/18 05:54:19;;;;;;;5.95;2.50;;;14.10;56.10;;;;;;5010510;28;20034;-73
2021/01/18 05:56:46;;;;;;;6.95;2.65;;;14.00;55.90;;;;;;5011803;28;20560;-73
2021/01/18 05:59:16;;;;;;;7.22;2.80;;;14.10;56.00;;;;;;5011871;28;20025;-73
2021/01/18 06:01:41;;;;;;;4.45;2.30;;;14.20;55.90;;;;;;5012439;28;20553;-73
2021/01/18 06:04:16;;;;;;;8.30;2.78;;;14.30;55.80;;;;;;5010651;28;20117;-73
2021/01/18 06:06:43;;;;;;;6.90;2.63;;;14.40;55.60;;;;;;5012621;28;20112;-72
2021/01/18 06:09:09;;;;;;;6.65;2.60;;;14.50;55.50;;;;;;5011967;28;20288;-73
2021/01/18 06:11:35;;;;;;;5.18;2.20;;;14.60;55.40;;;;;;5011532;28;20113;-72
2021/01/18 06:14:03;;;;;;;5.10;2.38;;;14.70;55.30;;;;;;5013166;28;20021;-72
2021/01/18 06:16:30;;;;;;;6.63;2.28;;;14.80;55.30;;;;;;5016392;28;20401;-72
2021/01/18 06:19:09;;;;;;;6.18;2.30;;;14.90;55.20;;;;;;5028711;28;20029;-72
2021/01/18 06:21:36;;;;;;;4.80;1.90;;;15.00;55.20;;;;;;5025175;28;20021;-73
2021/01/18 06:24:20;;;;;;;5.80;2.17;;;15.10;55.10;;;;;;5011626;28;20486;-72
2021/01/18 06:26:46;;;;;;;5.90;1.90;;;15.20;55.00;;;;;;5011151;28;20021;-72
2021/01/18 06:29:39;;;;;;;3.78;2.10;;;15.30;55.00;;;;;;5011686;28;20072;-72
2021/01/18 06:32:06;;;;;;;5.72;1.85;;;15.40;54.80;;;;;;5010959;28;20085;-73
2021/01/18 06:34:32;;;;;;;3.75;1.83;;;15.50;54.80;;;;;;5016467;28;20032;-73
2021/01/18 06:36:57;;;;;;;3.42;1.67;;;15.60;54.60;;;;;;5029436;28;20397;-73
2021/01/18 06:39:31;;;;;;;6.65;2.25;;;15.70;54.50;;;;;;5028481;28;20405;-74
2021/01/18 06:41:59;;;;;;;4.97;2.05;;;15.80;54.40;;;;;;5011165;28;20026;-73
2021/01/18 06:44:36;;;;;;;7.32;2.20;;;15.90;54.30;;;;;;5011213;28;20025;-77
2021/01/18 06:47:21;;;;;;;5.70;2.05;;;16.00;54.10;;;;;;5012325;28;20553;-73
2021/01/18 06:49:46;;;;;;;5.57;1.85;;;16.00;54.30;;;;;;5011404;28;20526;-75
2021/01/18 06:52:16;;;;;;;5.57;1.80;;;16.00;54.60;;;;;;5011315;28;20042;-73
2021/01/18 06:54:50;;;;;;;5.20;2.50;;;16.10;54.60;;;;;;5011032;28;20033;-74
2021/01/18 06:57:23;;;;;;;5.72;2.58;;;16.20;54.50;;;;;;5011312;28;20034;-74
2021/01/18 06:59:53;;;;;;;8.13;2.05;;;16.30;54.30;;;;;;5011878;28;20371;-76
2021/01/18 07:02:24;;;;;;;5.57;1.80;;;16.30;54.50;;;;;;5010900;28;20504;-74
2021/01/18 07:04:51;;;;;;;5.47;2.00;;;16.40;54.40;;;;;;5010994;28;20134;-76
2021/01/18 07:07:25;;;;;;;5.50;1.95;;;16.40;54.30;;;;;;5011614;28;20516;-76
2021/01/18 07:10:03;;;;;;;5.78;2.10;;;16.40;54.30;;;;;;5010967;28;20098;-77
2021/01/18 07:12:29;;;;;;;4.78;2.00;;;16.50;54.30;;;;;;5009565;28;20060;-74
2021/01/18 07:15:09;;;;;;;4.97;1.90;;;16.60;54.30;;;;;;5019825;28;20033;-73
2021/01/18 07:17:55;;;;;;;6.25;2.28;;;16.60;54.50;;;;;;5022685;28;20026;-75
2021/01/18 07:20:24;;;;;;;7.55;2.35;;;16.70;54.70;;;;;;5012112;28;20061;-74
2021/01/18 07:23:08;;;;;;;9.68;2.53;;;16.70;55.20;;;;;;5022106;28;20382;-75
2021/01/18 07:25:39;;;;;;;6.45;2.25;;;16.80;54.80;;;;;;5027189;28;20513;-74
2021/01/18 07:28:06;;;;;;;9.10;3.53;;;16.80;54.60;;;;;;5030092;28;20029;-73
2021/01/18 07:30:33;;;;;;;9.27;3.13;;;16.90;54.60;;;;;;5032130;28;20033;-70
2021/01/18 07:33:10;;;;;;;13.65;3.45;;;16.90;54.50;;;;;;5028470;28;20038;-73
2021/01/18 07:35:37;;;;;;;12.13;3.30;;;17.00;54.90;;;;;;5015636;28;20029;-72
2021/01/18 07:38:16;;;;;;;9.93;3.17;;;17.00;54.70;;;;;;5025809;28;20034;-72
2021/01/18 07:41:02;;;;;;;10.02;3.03;;;17.00;54.40;;;;;;5027985;28;20025;-74
2021/01/18 07:43:33;;;;;;;;;;;17.00;54.50;;;;;;5018158;28;20482;-71
2021/01/18 07:46:23;;;;;;;11.02;2.75;;;17.10;55.00;;;;;;5030687;28;20000;-72
2021/01/18 07:48:50;;;;;;;8.38;2.78;;;17.10;54.70;;;;;;5033433;28;20050;-72
2021/01/18 07:51:20;;;;;;;8.27;3.50;;;17.10;54.40;;;;;;5031731;28;20033;-72
2021/01/18 07:53:46;;;;;;;6.70;2.70;;;17.20;54.40;;;;;;5023387;28;20080;-71
2021/01/18 07:56:11;;;;;;;9.52;2.55;;;17.20;54.40;;;;;;5013868;28;20497;-72
2021/01/18 07:58:41;;;;;;;11.13;3.60;;;17.30;54.50;;;;;;5014958;28;20060;-71
2021/01/18 08:01:08;;;;;;;11.88;3.30;;;17.20;54.20;;;;;;5013485;28;20490;-73
2021/01/18 08:03:34;;;;;;;9.48;3.10;;;17.30;54.20;;;;;;5021157;28;20033;-72
2021/01/18 08:06:05;;;;;;;7.35;3.28;;;17.30;53.90;;;;;;5032626;28;20076;-72
2021/01/18 08:08:33;;;;;;;5.03;2.22;;;17.30;54.40;;;;;;5033329;28;20025;-72
2021/01/18 08:10:58;;;;;;;8.77;2.10;;;17.30;53.80;;;;;;5033429;28;20022;-72
2021/01/18 08:13:43;;;;;;;9.82;2.95;;;17.40;53.60;;;;;;5033520;28;20413;-72
2021/01/18 08:16:10;;;;;;;10.82;2.65;;;17.40;53.40;;;;;;5031761;28;20037;-75
2021/01/18 08:18:36;;;;;;;8.75;2.83;;;17.40;53.40;;;;;;5029970;28;20482;-75
2021/01/18 08:21:39;;;;;;;5.43;1.83;;;17.50;53.90;;;;;;5033413;28;20037;-75
2021/01/18 08:24:27;;;;;;;10.48;3.33;;;17.50;53.40;;;;;;5033162;28;20079;-75
2021/01/18 08:26:57;;;;;;;7.53;2.75;;;17.60;53.10;;;;;;5026043;28;20066;-75
2021/01/18 08:29:52;;;;;;;8.57;2.78;;;17.70;53.00;;;;;;5013122;28;20449;-75
2021/01/18 08:32:24;;;;;;;9.55;3.10;;;17.70;52.80;;;;;;5013970;28;20081;-75
2021/01/18 08:34:50;;;;;;;10.43;3.00;;;17.80;53.10;;;;;;5012880;28;20014;-73
2021/01/18 08:37:16;;;;;;;8.25;3.30;;;17.70;52.80;;;;;;5020975;28;20029;-75
2021/01/18 08:39:56;;;;;;;6.85;2.60;;;17.70;52.90;;;;;;5030964;28;20409;-73
2021/01/18 08:42:32;;;;;;;9.00;3.20;;;17.80;52.80;;;;;;5022479;28;20040;-72
2021/01/18 08:45:04;;;;;;;7.80;2.95;;;17.80;52.90;;;;;;5033201;28;20028;-73
2021/01/18 08:47:36;;;;;;;12.80;3.20;;;17.80;52.90;;;;;;5027143;28;20137;-72
2021/01/18 08:50:20;;;;;;;10.27;3.35;;;17.80;52.70;;;;;;5016604;28;20022;-72
2021/01/18 08:52:50;;;;;;;8.38;2.95;;;17.80;52.60;;;;;;5012510;28;20127;-72
2021/01/18 08:55:45;;;;;;;7.40;2.35;;;17.80;52.50;;;;;;5013709;28;20022;-73
2021/01/18 08:58:11;;;;;;;8.88;3.15;;;17.80;52.60;;;;;;5013329;28;20033;-72
2021/01/18 09:00:44;;;;;;;6.03;2.22;;;17.90;52.40;;;;;;5012491;28;20152;-72
2021/01/18 09:03:17;;;;;;;6.43;2.65;;;18.00;52.40;;;;;;5012447;28;20045;-74
2021/01/18 09:05:46;;;;;;;7.75;2.33;;;18.10;52.10;;;;;;5012692;28;20034;-71
2021/01/18 09:08:14;;;;;;;7.53;2.53;;;18.20;52.00;;;;;;5013385;28;20029;-72
2021/01/18 09:10:40;;;;;;;7.63;2.28;;;18.20;51.90;;;;;;5011965;28;20399;-72
2021/01/18 09:13:07;;;;;;;7.32;2.42;;;18.30;51.90;;;;;;5012494;28;20040;-72
2021/01/18 09:15:33;;;;;;;5.63;2.42;;;18.40;51.90;;;;;;5013412;28;20026;-72
2021/01/18 09:18:18;;;;;;;6.65;2.53;;;18.40;51.70;;;;;;5027994;28;20035;-72
2021/01/18 09:20:44;;;;;;;6.63;1.95;;;18.50;51.80;;;;;;5031817;28;20084;-72
2021/01/18 09:23:12;;;;;;;10.25;2.40;;;18.50;51.60;;;;;;5032029;28;20032;-72
2021/01/18 09:25:38;;;;;;;8.00;2.65;;;18.60;51.60;;;;;;5030932;28;20023;-73
2021/01/18 09:28:14;;;;;;;6.38;2.22;;;18.70;51.50;;;;;;5032244;28;20025;-72
2021/01/18 09:30:44;;;;;;;5.05;2.22;;;18.70;51.40;;;;;;5031953;28;20120;-71
2021/01/18 09:33:11;;;;;;;5.13;2.20;;;18.80;51.40;;;;;;5030091;28;20033;-71
2021/01/18 09:35:41;;;;;;;8.02;2.40;;;18.80;51.30;;;;;;5031907;28;20022;-70
2021/01/18 09:38:09;;;;;;;4.95;2.10;;;18.90;51.20;;;;;;5032225;28;20113;-72
2021/01/18 09:40:37;;;;;;;5.60;1.77;;;18.90;51.20;;;;;;5032362;28;20457;-72
2021/01/18 09:43:03;;;;;;;7.57;2.47;;;18.90;51.00;;;;;;5029709;28;20040;-72
2021/01/18 09:45:29;;;;;;;3.67;1.92;;;19.00;51.00;;;;;;5032264;28;20410;-71
2021/01/18 09:48:04;;;;;;;6.78;2.53;;;19.00;50.90;;;;;;5031437;28;20076;-73
2021/01/18 09:50:30;;;;;;;5.15;2.10;;;19.00;50.80;;;;;;5030747;28;20083;-74
2021/01/18 09:52:57;;;;;;;5.05;1.90;;;19.00;50.90;;;;;;5016307;28;20042;-76
2021/01/18 09:55:30;;;;;;;7.40;2.55;;;19.10;50.70;;;;;;5012039;28;20057;-74
2021/01/18 09:58:19;;;;;;;5.43;2.05;;;19.10;50.70;;;;;;5011886;28;20030;-74
2021/01/18 10:00:48;;;;;;;8.38;2.95;;;19.10;50.60;;;;;;5011901;28;20028;-73
2021/01/18 10:03:35;;;;;;;6.82;2.67;;;19.20;50.60;;;;;;5027286;28;20040;-73
2021/01/18 10:06:14;;;;;;;5.07;2.35;;;19.20;50.50;;;;;;5032120;28;20040;-75
2021/01/18 10:08:43;;;;;;;5.68;2.15;;;19.30;50.50;;;;;;5031447;28;20397;-73
2021/01/18 10:11:09;;;;;;;5.20;1.95;;;19.30;50.30;;;;;;5031490;28;20032;-70
2021/01/18 10:13:35;;;;;;;5.10;2.00;;;19.30;50.40;;;;;;5012165;28;20056;-71
2021/01/18 10:16:12;;;;;;;6.03;1.95;;;19.30;50.30;;;;;;5011821;28;20394;-73
2021/01/18 10:18:41;;;;;;;5.75;2.28;;;19.30;50.10;;;;;;5011144;28;20506;-75
2021/01/18 10:21:08;;;;;;;5.63;2.00;;;19.30;50.00;;;;;;5017427;28;20030;-70
2021/01/18 10:23:38;;;;;;;4.97;2.03;;;19.30;50.00;;;;;;5030386;28;20183;-72
2021/01/18 10:26:26;;;;;;;5.72;2.22;;;19.40;49.90;;;;;;5031326;28;20029;-70
2021/01/18 10:28:54;;;;;;;7.10;2.30;;;19.40;49.80;;;;;;5031260;28;20818;-71
2021/01/18 10:31:21;;;;;;;5.78;2.22;;;19.50;49.70;;;;;;5030764;28;20040;-72
2021/01/18 10:34:08;;;;;;;4.07;2.00;;;19.50;49.60;;;;;;5028608;28;20033;-72
2021/01/18 10:36:33;;;;;;;4.03;1.60;;;19.60;49.40;;;;;;5028893;28;20018;-72
2021/01/18 10:38:59;;;;;;;5.57;1.98;;;19.70;49.50;;;;;;5031220;28;20037;-71
2021/01/18 10:41:27;;;;;;;6.35;2.50;;;19.70;49.30;;;;;;5031212;28;20033;-70
2021/01/18 10:43:54;;;;;;;4.82;1.92;;;19.80;49.40;;;;;;5028934;28;20021;-72
2021/01/18 10:46:19;;;;;;;5.93;1.88;;;19.90;49.20;;;;;;5031297;28;20026;-73
2021/01/18 10:48:55;;;;;;;5.15;2.00;;;19.90;49.00;;;;;;5030814;28;20035;-72
2021/01/18 10:51:28;;;;;;;5.60;1.95;;;19.90;49.10;;;;;;5030884;28;20389;-72
2021/01/18 10:54:00;;;;;;;6.90;2.40;;;20.00;48.80;;;;;;5016589;28;20073;-73
2021/01/18 10:56:33;;;;;;;4.68;1.92;;;20.00;48.70;;;;;;5011197;28;20049;-72
2021/01/18 10:59:00;;;;;;;4.28;2.08;;;20.10;48.80;;;;;;5019906;28;20053;-73
2021/01/18 11:01:26;;;;;;;4.95;2.17;;;20.10;48.70;;;;;;5030766;28;20117;-73
2021/01/18 11:03:53;;;;;;;6.25;2.17;;;20.10;49.00;;;;;;5031416;28;20037;-72
2021/01/18 11:06:22;;;;;;;5.80;2.28;;;20.20;48.50;;;;;;5035021;28;20591;-73
2021/01/18 11:08:53;;;;;;;5.60;2.10;;;20.20;48.50;;;;;;5034848;28;20521;-71
2021/01/18 11:11:27;;;;;;;6.43;2.30;;;20.20;48.60;;;;;;5034775;28;20037;-75
2021/01/18 11:14:04;;;;;;;5.30;1.80;;;20.20;48.60;;;;;;5034576;28;20037;-73
2021/01/18 11:16:30;;;;;;;4.25;2.20;;;20.30;48.40;;;;;;5034886;28;20021;-72
2021/01/18 11:19:06;;;;;;;6.35;2.55;;;20.30;48.40;;;;;;5033157;28;20461;-74
2021/01/18 11:21:33;;;;;;;6.70;1.85;;;20.30;48.40;;;;;;5034412;28;20064;-73
2021/01/18 11:23:58;;;;;;;5.03;1.85;;;20.30;49.10;;;;;;5035012;28;20025;-71
2021/01/18 11:26:24;;;;;;;4.60;1.85;;;20.30;48.50;;;;;;5033384;28;20026;-73
2021/01/18 11:28:50;;;;;;;9.70;2.63;;;20.30;48.20;;;;;;5033722;28;20022;-79
2021/01/18 11:31:17;;;;;;;4.60;1.80;;;20.20;48.10;;;;;;5033952;28;20073;-74
2021/01/18 11:33:44;;;;;;;5.85;2.47;;;20.10;47.80;;;;;;5033173;28;20037;-78
2021/01/18 11:36:13;;;;;;;7.78;2.63;;;20.00;47.90;;;;;;5034289;28;20481;-78
2021/01/18 11:38:39;;;;;;;5.75;2.35;;;20.00;48.50;;;;;;5034115;28;20057;-78
2021/01/18 11:41:05;;;;;;;7.80;2.45;;;20.00;48.10;;;;;;5034483;28;20025;-73
2021/01/18 11:43:33;;;;;;;8.43;2.35;;;20.00;48.80;;;;;;5030444;28;20017;-73
2021/01/18 11:45:59;;;;;;;6.65;2.53;;;20.00;48.50;;;;;;5034308;28;20033;-74
2021/01/18 11:48:25;;;;;;;10.60;2.40;;;19.90;48.70;;;;;;5022364;28;20612;-74
2021/01/18 11:50:50;;;;;;;10.18;2.75;;;19.90;48.90;;;;;;5032444;28;20101;-73
2021/01/18 11:53:18;;;;;;;7.70;2.00;;;19.80;49.00;;;;;;5033982;28;20034;-73
2021/01/18 11:55:46;;;;;;;8.85;2.38;;;19.70;49.20;;;;;;5033927;28;20416;-73
2021/01/18 11:58:12;;;;;;;11.23;2.60;;;19.70;49.30;;;;;;5034157;28;20507;-73
2021/01/18 12:00:38;;;;;;;10.32;2.60;;;19.70;49.50;;;;;;5033084;28;20021;-73
2021/01/18 12:03:04;;;;;;;10.60;3.05;;;19.70;49.80;;;;;;5032369;28;20029;-73
2021/01/18 12:05:30;;;;;;;7.13;2.70;;;19.80;49.70;;;;;;5031927;28;20539;-73
2021/01/18 12:08:02;;;;;;;9.65;3.30;;;20.10;49.70;;;;;;5025744;28;20060;-73
2021/01/18 12:10:28;;;;;;;10.00;3.00;;;20.40;48.80;;;;;;5016207;28;20053;-73
2021/01/18 12:12:54;;;;;;;8.10;2.72;;;20.20;49.00;;;;;;5019758;28;20045;-72
2021/01/18 12:15:20;;;;;;;6.50;2.25;;;20.30;49.10;;;;;;5028798;28;20478;-73
2021/01/18 12:17:45;;;;;;;9.15;2.67;;;20.30;49.30;;;;;;5013150;28;20026;-72
2021/01/18 12:20:16;;;;;;;7.57;2.63;;;20.20;49.10;;;;;;5013951;28;20022;-72
2021/01/18 12:22:42;;;;;;;7.68;3.03;;;20.10;49.20;;;;;;5018340;28;20049;-73
2021/01/18 12:25:08;;;;;;;8.50;2.92;;;20.00;49.50;;;;;;5033091;28;20029;-72
2021/01/18 12:27:34;;;;;;;8.52;2.60;;;20.00;49.50;;;;;;5029306;28;20013;-72
2021/01/18 12:30:00;;;;;;;7.68;2.42;;;20.00;49.50;;;;;;5013739;28;20096;-73
2021/01/18 12:32:26;;;;;;;7.60;2.80;;;19.90;49.70;;;;;;5013284;28;20030;-73
2021/01/18 12:34:52;;;;;;;6.70;2.15;;;19.80;49.80;;;;;;5013003;28;20034;-73
2021/01/18 12:37:18;;;;;;;7.95;2.42;;;19.70;49.90;;;;;;5011725;28;20022;-73
2021/01/18 12:39:44;;;;;;;7.65;2.55;;;19.80;49.90;;;;;;5012741;28;20030;-73
2021/01/18 12:42:10;;;;;;;6.63;2.33;;;19.80;49.90;;;;;;5012764;28;20474;-72
2021/01/18 12:44:35;;;;;;;5.88;1.90;;;19.70;50.00;;;;;;5012979;28;20029;-73
2021/01/18 12:47:05;;;;;;;6.25;2.45;;;19.70;50.10;;;;;;5013352;28;20026;-74
2021/01/18 12:49:32;;;;;;;6.60;2.60;;;19.60;50.20;;;;;;5013605;28;20033;-73
2021/01/18 12:51:58;;;;;;;5.97;2.47;;;19.60;50.30;;;;;;5013585;28;20030;-76
2021/01/18 12:54:24;;;;;;;5.70;2.45;;;19.60;50.60;;;;;;5013392;28;20501;-74
2021/01/18 12:56:53;;;;;;;7.28;2.97;;;19.60;50.90;;;;;;5025544;28;20029;-77
2021/01/18 12:59:18;;;;;;;8.00;2.58;;;19.60;51.50;;;;;;5023605;28;20029;-78
2021/01/18 13:01:45;;;;;;;7.28;2.40;;;19.60;51.10;;;;;;5014312;28;20030;-79